createdAt,value
2022-09-21T00:01:44.602Z,10.30
2022-09-21T00:04:11.556Z,10.30
2022-09-21T00:06:38.543Z,10.30
2022-09-21T00:09:05.567Z,10.30
2022-09-21T00:11:33.504Z,10.30
2022-09-21T00:14:02.844Z,10.20
2022-09-21T00:16:30.005Z,10.20
2022-09-21T00:18:56.808Z,10.10
2022-09-21T00:21:24.468Z,10.10
2022-09-21T00:23:51.249Z,10.10
2022-09-21T00:26:19.317Z,10.00
2022-09-21T00:28:46.519Z,10.00
2022-09-21T00:31:14.576Z,10.00
2022-09-21T00:33:41.948Z,10.00
2022-09-21T00:36:10.058Z,10.00
2022-09-21T00:38:37.559Z,10.00
2022-09-21T00:41:05.162Z,10.00
2022-09-21T00:43:34.187Z,10.00
2022-09-21T00:46:02.573Z,10.00
2022-09-21T00:48:29.771Z,10.00
2022-09-21T00:50:59.248Z,10.00
2022-09-21T00:53:28.008Z,10.00
2022-09-21T00:55:55.968Z,10.00
2022-09-21T00:58:27.791Z,10.00
2022-09-21T01:00:55.251Z,10.00
2022-09-21T01:03:22.055Z,10.00
2022-09-21T01:05:49.101Z,10.00
2022-09-21T01:08:16.399Z,10.00
2022-09-21T01:11:02.344Z,10.00
2022-09-21T01:13:38.305Z,10.00
2022-09-21T01:16:13.951Z,10.00
2022-09-21T01:18:51.747Z,10.10
2022-09-21T01:21:22.347Z,10.10
2022-09-21T01:24:05.477Z,10.10
2022-09-21T01:26:41.454Z,10.10
2022-09-21T01:29:14.157Z,10.10
2022-09-21T01:31:50.951Z,10.10
2022-09-21T01:34:25.717Z,10.10
2022-09-21T01:36:55.149Z,10.10
2022-09-21T01:39:23.365Z,10.10
2022-09-21T01:41:52.010Z,10.00
2022-09-21T01:44:20.704Z,9.90
2022-09-21T01:46:48.381Z,9.90
2022-09-21T01:49:21.785Z,9.90
2022-09-21T01:51:50.528Z,9.80
2022-09-21T01:54:21.422Z,9.80
2022-09-21T01:56:51.875Z,9.80
2022-09-21T01:59:21.864Z,9.70
2022-09-21T02:01:52.054Z,9.70
2022-09-21T02:04:19.043Z,9.70
2022-09-21T02:06:46.758Z,9.70
2022-09-21T02:09:14.222Z,9.70
2022-09-21T02:11:43.927Z,9.70
2022-09-21T02:14:11.743Z,9.60
2022-09-21T02:16:57.303Z,9.60
2022-09-21T02:19:30.461Z,9.50
2022-09-21T02:21:59.934Z,9.50
2022-09-21T02:24:32.545Z,9.50
2022-09-21T02:27:06.707Z,9.50
2022-09-21T02:29:51.825Z,9.50
2022-09-21T02:32:27.390Z,9.50
2022-09-21T02:35:03.722Z,9.40
2022-09-21T02:37:37.537Z,9.40
2022-09-21T02:40:09.764Z,9.40
2022-09-21T02:42:39.386Z,9.40
2022-09-21T02:45:09.174Z,9.40
2022-09-21T02:47:42.828Z,9.40
2022-09-21T02:50:13.051Z,9.40
2022-09-21T02:52:40.965Z,9.30
2022-09-21T02:55:08.852Z,9.30
2022-09-21T02:57:36.165Z,9.30
2022-09-21T03:00:03.033Z,9.40
2022-09-21T03:02:37.025Z,9.40
2022-09-21T03:05:03.873Z,9.40
2022-09-21T03:07:30.629Z,9.50
2022-09-21T03:09:58.089Z,9.50
2022-09-21T03:12:24.933Z,9.60
2022-09-21T03:14:51.803Z,9.60
2022-09-21T03:17:18.688Z,9.60
2022-09-21T03:19:45.412Z,9.60
2022-09-21T03:22:12.094Z,9.60
2022-09-21T03:24:47.668Z,9.70
2022-09-21T03:27:16.125Z,9.70
2022-09-21T03:29:42.993Z,9.70
2022-09-21T03:32:10.145Z,9.70
2022-09-21T03:34:36.979Z,9.70
2022-09-21T03:37:05.085Z,9.80
2022-09-21T03:39:31.885Z,9.80
2022-09-21T03:41:58.638Z,9.80
2022-09-21T03:44:25.859Z,9.80
2022-09-21T03:46:53.016Z,9.80
2022-09-21T03:49:19.997Z,9.80
2022-09-21T03:51:46.897Z,9.80
2022-09-21T03:54:13.644Z,9.80
2022-09-21T03:56:40.395Z,9.80
2022-09-21T03:59:11.790Z,9.80
2022-09-21T04:01:40.728Z,9.90
2022-09-21T04:04:07.512Z,9.90
2022-09-21T04:06:34.308Z,9.90
2022-09-21T04:09:03.514Z,9.90
2022-09-21T04:11:31.193Z,9.80
2022-09-21T04:13:57.933Z,9.80
2022-09-21T04:16:25.494Z,9.80
2022-09-21T04:18:52.275Z,9.80
2022-09-21T04:21:19.522Z,9.80
2022-09-21T04:23:46.346Z,9.80
2022-09-21T04:26:20.229Z,9.80
2022-09-21T04:28:46.987Z,9.80
2022-09-21T04:31:13.794Z,9.80
2022-09-21T04:33:41.583Z,9.80
2022-09-21T04:36:08.316Z,9.80
2022-09-21T04:38:35.068Z,9.80
2022-09-21T04:41:03.418Z,9.70
2022-09-21T04:43:30.290Z,9.70
2022-09-21T04:45:57.060Z,9.70
2022-09-21T04:48:23.963Z,9.70
2022-09-21T04:50:50.812Z,9.70
2022-09-21T04:53:17.865Z,9.70
2022-09-21T04:55:45.289Z,9.70
2022-09-21T04:58:12.026Z,9.70
2022-09-21T05:00:38.779Z,9.60
2022-09-21T05:03:05.531Z,9.60
2022-09-21T05:05:33.175Z,9.60
2022-09-21T05:07:59.919Z,9.60
2022-09-21T05:10:26.917Z,9.60
2022-09-21T05:12:53.697Z,9.60
2022-09-21T05:15:22.011Z,9.70
2022-09-21T05:17:48.763Z,9.70
2022-09-21T05:20:15.509Z,9.70
2022-09-21T05:22:42.269Z,9.70
2022-09-21T05:25:09.425Z,9.70
2022-09-21T05:27:36.184Z,9.70
2022-09-21T05:30:03.099Z,9.80
2022-09-21T05:32:42.117Z,9.80
2022-09-21T05:35:08.824Z,9.80
2022-09-21T05:37:44.270Z,9.80
2022-09-21T05:40:12.080Z,9.90
2022-09-21T05:42:39.179Z,9.90
2022-09-21T05:45:06.445Z,9.90
2022-09-21T05:47:33.189Z,9.90
2022-09-21T05:50:05.995Z,9.90
2022-09-21T05:52:43.754Z,9.90
2022-09-21T05:55:25.744Z,10.00
2022-09-21T05:57:55.453Z,10.00
2022-09-21T06:00:23.349Z,10.00
2022-09-21T06:02:59.384Z,10.10
2022-09-21T06:05:26.579Z,10.00
2022-09-21T06:07:53.348Z,10.10
2022-09-21T06:10:20.161Z,10.10
2022-09-21T06:12:46.903Z,10.20
2022-09-21T06:15:14.384Z,10.20
2022-09-21T06:17:41.111Z,10.20
2022-09-21T06:20:08.125Z,10.30
2022-09-21T06:22:34.969Z,10.30
2022-09-21T06:25:02.126Z,10.30
2022-09-21T06:27:29.047Z,10.30
2022-09-21T06:29:55.819Z,10.30
2022-09-21T06:32:22.564Z,10.40
2022-09-21T06:34:50.019Z,10.40
2022-09-21T06:37:16.897Z,10.40
2022-09-21T06:39:43.736Z,10.50
2022-09-21T06:42:10.617Z,10.50
2022-09-21T06:44:37.444Z,10.60
2022-09-21T06:47:04.374Z,10.60
2022-09-21T06:49:31.135Z,10.60
2022-09-21T06:51:58.450Z,10.60
2022-09-21T06:54:25.642Z,10.70
2022-09-21T06:56:54.115Z,10.70
2022-09-21T06:59:23.584Z,10.80
2022-09-21T07:01:50.391Z,10.80
2022-09-21T07:04:18.444Z,10.80
2022-09-21T07:06:46.690Z,10.80
2022-09-21T07:12:00.219Z,10.80
2022-09-21T07:14:26.954Z,10.90
2022-09-21T07:16:53.709Z,10.90
2022-09-21T07:19:20.474Z,10.90
2022-09-21T07:21:47.531Z,11.00
2022-09-21T07:24:15.117Z,11.00
2022-09-21T07:26:41.893Z,11.10
2022-09-21T07:29:08.614Z,11.20
2022-09-21T07:31:35.595Z,11.20
2022-09-21T07:34:02.626Z,11.30
2022-09-21T07:36:29.458Z,11.30
2022-09-21T07:38:56.167Z,11.40
2022-09-21T07:41:23.133Z,11.50
2022-09-21T07:43:49.913Z,11.50
2022-09-21T07:46:16.739Z,11.60
2022-09-21T07:48:43.578Z,11.60
2022-09-21T07:51:11.485Z,11.70
2022-09-21T07:53:39.176Z,11.60
2022-09-21T07:56:10.543Z,11.70
2022-09-21T07:58:56.076Z,11.70
2022-09-21T08:01:23.308Z,11.70
2022-09-21T08:03:53.447Z,11.80
2022-09-21T08:06:20.677Z,11.80
2022-09-21T08:08:48.269Z,11.70
2022-09-21T08:11:15.861Z,11.80
2022-09-21T08:13:42.623Z,11.80
2022-09-21T08:16:09.729Z,11.80
2022-09-21T08:18:37.720Z,11.80
2022-09-21T08:21:04.856Z,11.80
2022-09-21T08:23:31.672Z,11.80
2022-09-21T08:26:02.141Z,11.80
2022-09-21T08:28:29.410Z,11.80
2022-09-21T08:30:59.361Z,11.80
2022-09-21T08:33:29.535Z,11.90
2022-09-21T08:36:00.434Z,11.90
2022-09-21T08:38:27.763Z,12.00
2022-09-21T08:40:55.457Z,12.00
2022-09-21T08:43:29.555Z,12.10
2022-09-21T08:45:57.453Z,12.20
2022-09-21T08:48:29.967Z,12.40
2022-09-21T08:51:05.799Z,12.50
2022-09-21T08:53:34.489Z,12.60
2022-09-21T08:56:02.863Z,12.60
2022-09-21T08:58:31.159Z,12.60
2022-09-21T09:01:04.836Z,12.60
2022-09-21T09:03:33.746Z,12.60
2022-09-21T09:06:09.475Z,12.50
2022-09-21T09:08:46.907Z,12.50
2022-09-21T09:11:20.494Z,12.50
2022-09-21T09:13:53.370Z,12.50
2022-09-21T09:16:38.737Z,12.60
2022-09-21T09:19:23.720Z,12.60
2022-09-21T09:21:50.537Z,12.60
2022-09-21T09:24:29.305Z,12.70
2022-09-21T09:27:00.371Z,12.70
2022-09-21T09:29:46.049Z,12.70
2022-09-21T09:32:14.306Z,12.60
2022-09-21T09:34:53.837Z,12.60
2022-09-21T09:37:23.511Z,12.60
2022-09-21T09:39:54.178Z,12.70
2022-09-21T09:42:22.056Z,12.70
2022-09-21T09:45:00.704Z,12.60
2022-09-21T09:47:36.589Z,12.60
2022-09-21T09:50:11.075Z,12.60
2022-09-21T09:52:37.906Z,12.60
2022-09-21T09:55:17.086Z,12.60
2022-09-21T09:57:44.025Z,12.60
2022-09-21T10:00:13.805Z,12.50
2022-09-21T10:02:54.001Z,12.60
2022-09-21T10:05:23.910Z,12.50
2022-09-21T10:07:51.337Z,12.50
2022-09-21T10:10:24.293Z,12.50
2022-09-21T10:12:52.647Z,12.50
2022-09-21T10:15:20.548Z,12.60
2022-09-21T10:17:47.936Z,12.70
2022-09-21T10:20:16.534Z,12.70
2022-09-21T10:22:48.076Z,12.80
2022-09-21T10:25:16.804Z,12.80
2022-09-21T10:27:45.623Z,12.80
2022-09-21T10:30:30.660Z,12.80
2022-09-21T10:32:58.385Z,12.90
2022-09-21T10:35:26.068Z,13.00
2022-09-21T10:38:21.136Z,13.10
2022-09-21T10:40:49.234Z,13.10
2022-09-21T10:43:31.711Z,13.20
2022-09-21T10:46:00.393Z,13.20
2022-09-21T10:48:27.948Z,13.20
2022-09-21T10:50:55.620Z,13.20
2022-09-21T10:53:28.433Z,13.20
2022-09-21T10:56:17.585Z,13.30
2022-09-21T10:59:03.208Z,13.30
2022-09-21T11:01:31.282Z,13.40
2022-09-21T11:04:05.454Z,13.30
2022-09-21T11:06:38.186Z,13.30
2022-09-21T11:09:04.908Z,13.30
2022-09-21T11:11:34.356Z,13.30
2022-09-21T11:14:07.334Z,13.30
2022-09-21T11:16:41.134Z,13.30
2022-09-21T11:19:17.041Z,13.40
2022-09-21T11:21:56.111Z,13.40
2022-09-21T11:24:35.655Z,13.40
2022-09-21T11:27:06.997Z,13.50
2022-09-21T11:29:39.905Z,13.50
2022-09-21T11:32:09.416Z,13.40
2022-09-21T11:34:52.027Z,13.60
2022-09-21T11:37:18.771Z,13.60
2022-09-21T11:40:21.099Z,13.60
2022-09-21T11:42:47.850Z,13.60
2022-09-21T11:45:34.857Z,13.60
2022-09-21T11:48:07.625Z,13.50
2022-09-21T11:50:34.322Z,13.60
2022-09-21T11:53:07.115Z,13.60
2022-09-21T11:55:33.829Z,13.60
2022-09-21T11:58:15.005Z,13.60
2022-09-21T12:01:08.475Z,13.60
2022-09-21T12:03:35.239Z,13.70
2022-09-21T12:06:11.860Z,13.80
2022-09-21T12:08:57.493Z,13.80
2022-09-21T12:11:30.096Z,13.80
2022-09-21T12:14:08.850Z,14.00
2022-09-21T12:16:36.132Z,13.90
2022-09-21T12:19:09.507Z,13.80
2022-09-21T12:21:41.469Z,13.80
2022-09-21T12:24:14.023Z,13.70
2022-09-21T12:26:42.859Z,13.70
2022-09-21T12:29:15.473Z,13.80
2022-09-21T12:31:44.930Z,13.80
2022-09-21T12:34:16.226Z,13.80
2022-09-21T12:36:46.020Z,13.60
2022-09-21T12:39:18.945Z,13.60
2022-09-21T12:41:53.794Z,13.50
2022-09-21T12:44:51.978Z,13.50
2022-09-21T12:47:27.256Z,13.60
2022-09-21T12:49:57.523Z,13.50
2022-09-21T12:52:27.695Z,13.50
2022-09-21T12:55:01.659Z,13.60
2022-09-21T12:57:53.468Z,13.60
2022-09-21T13:00:22.334Z,13.70
2022-09-21T13:02:55.696Z,13.60
2022-09-21T13:05:28.171Z,13.70
2022-09-21T13:07:55.325Z,13.70
2022-09-21T13:10:28.697Z,13.70
2022-09-21T13:12:59.962Z,13.60
2022-09-21T13:15:27.871Z,13.70
2022-09-21T13:18:00.002Z,13.80
2022-09-21T13:20:27.135Z,13.80
2022-09-21T13:23:01.355Z,13.80
2022-09-21T13:25:29.834Z,13.90
2022-09-21T13:28:03.977Z,14.00
2022-09-21T13:30:32.786Z,13.90
2022-09-21T13:32:59.960Z,14.00
2022-09-21T13:35:46.034Z,14.10
2022-09-21T13:38:42.281Z,14.00
2022-09-21T13:41:18.306Z,14.00
2022-09-21T13:43:59.768Z,14.00
2022-09-21T13:46:35.462Z,14.10
2022-09-21T13:49:11.474Z,14.10
2022-09-21T13:51:53.755Z,14.20
2022-09-21T13:54:21.601Z,14.30
2022-09-21T13:56:57.061Z,14.40
2022-09-21T13:59:24.848Z,14.50
2022-09-21T14:01:51.753Z,14.60
2022-09-21T14:04:23.311Z,14.60
2022-09-21T14:06:51.031Z,14.50
2022-09-21T14:09:23.849Z,14.60
2022-09-21T14:12:02.240Z,14.50
2022-09-21T14:14:33.492Z,14.80
2022-09-21T14:17:00.869Z,14.90
2022-09-21T14:19:29.633Z,14.80
2022-09-21T14:22:08.460Z,14.80
2022-09-21T14:24:39.227Z,14.90
2022-09-21T14:27:14.868Z,14.80
2022-09-21T14:29:44.659Z,14.80
2022-09-21T14:32:14.383Z,15.10
2022-09-21T14:34:41.823Z,15.20
2022-09-21T14:37:23.542Z,15.30
2022-09-21T14:39:52.496Z,15.40
2022-09-21T14:42:23.203Z,15.40
2022-09-21T14:44:51.660Z,15.40
2022-09-21T14:47:39.424Z,15.30
2022-09-21T14:50:14.415Z,15.30
2022-09-21T14:52:56.148Z,15.40
2022-09-21T14:55:41.904Z,15.30
2022-09-21T14:58:08.775Z,15.30
2022-09-21T15:00:46.290Z,15.10
2022-09-21T15:03:31.856Z,15.00
2022-09-21T15:06:33.557Z,14.70
2022-09-21T15:09:37.716Z,14.40
2022-09-21T15:12:11.599Z,14.20
2022-09-21T15:14:43.410Z,14.00
2022-09-21T15:17:24.250Z,13.80
2022-09-21T15:19:51.140Z,13.70
2022-09-21T15:22:19.282Z,13.60
2022-09-21T15:24:56.619Z,13.50
2022-09-21T15:27:25.454Z,13.40
2022-09-21T15:29:53.754Z,13.30
2022-09-21T15:32:29.529Z,13.20
2022-09-21T15:35:01.351Z,13.10
2022-09-21T15:37:28.912Z,13.00
2022-09-21T15:40:00.014Z,13.00
2022-09-21T15:42:26.945Z,12.90
2022-09-21T15:45:10.832Z,12.90
2022-09-21T15:47:37.791Z,12.80
2022-09-21T15:50:04.795Z,12.70
2022-09-21T15:52:36.249Z,12.70
2022-09-21T15:55:09.475Z,12.70
2022-09-21T15:57:41.332Z,12.60
2022-09-21T16:00:09.197Z,12.60
2022-09-21T16:02:39.359Z,12.50
2022-09-21T16:05:07.624Z,12.50
2022-09-21T16:07:35.510Z,12.40
2022-09-21T16:10:03.211Z,12.40
2022-09-21T16:12:29.927Z,12.30
2022-09-21T16:15:03.981Z,12.20
2022-09-21T16:17:37.945Z,12.20
2022-09-21T16:20:11.230Z,12.10
2022-09-21T16:22:39.879Z,12.10
2022-09-21T16:25:25.439Z,12.00
2022-09-21T16:27:54.345Z,12.00
2022-09-21T16:30:47.404Z,11.90
2022-09-21T16:33:32.733Z,11.80
2022-09-21T16:36:00.274Z,11.70
2022-09-21T16:38:27.394Z,11.60
2022-09-21T16:40:54.770Z,11.50
2022-09-21T16:43:24.241Z,11.40
2022-09-21T16:45:51.137Z,11.20
2022-09-21T16:48:18.884Z,11.10
2022-09-21T16:50:46.789Z,11.00
2022-09-21T16:53:13.501Z,11.00
2022-09-21T16:55:42.953Z,10.80
2022-09-21T16:58:10.045Z,10.70
2022-09-21T17:00:40.245Z,10.60
2022-09-21T17:03:07.007Z,10.60
2022-09-21T17:05:33.680Z,10.50
2022-09-21T17:08:00.536Z,10.40
2022-09-21T17:10:29.690Z,10.20
2022-09-21T17:12:56.726Z,10.20
2022-09-21T17:15:24.482Z,10.10
2022-09-21T17:17:51.453Z,10.00
2022-09-21T17:20:25.815Z,9.90
2022-09-21T17:22:52.592Z,9.90
2022-09-21T17:25:19.349Z,9.80
2022-09-21T17:27:46.183Z,9.70
2022-09-21T17:30:13.735Z,9.60
2022-09-21T17:32:42.806Z,9.50
2022-09-21T17:35:31.253Z,9.50
2022-09-21T17:38:00.301Z,9.40
2022-09-21T17:40:27.349Z,9.30
2022-09-21T17:42:55.829Z,9.20
2022-09-21T17:45:28.999Z,9.20
2022-09-21T17:47:55.859Z,9.10
2022-09-21T17:50:25.523Z,9.00
2022-09-21T17:53:10.998Z,9.00
2022-09-21T17:55:38.710Z,8.90
2022-09-21T17:58:14.251Z,8.90
2022-09-21T18:00:45.753Z,8.80
2022-09-21T18:03:23.136Z,8.80
2022-09-21T18:05:51.023Z,8.70
2022-09-21T18:08:18.114Z,8.60
2022-09-21T18:10:47.425Z,8.60
2022-09-21T18:13:29.575Z,8.50
2022-09-21T18:15:59.411Z,8.50
2022-09-21T18:18:58.489Z,8.40
2022-09-21T18:21:27.842Z,8.30
2022-09-21T18:24:03.633Z,8.30
2022-09-21T18:26:30.473Z,8.20
2022-09-21T18:28:58.166Z,8.10
2022-09-21T18:31:25.092Z,8.10
2022-09-21T18:33:51.889Z,8.00
2022-09-21T18:36:18.617Z,7.90
2022-09-21T18:38:54.560Z,7.90
2022-09-21T18:41:31.108Z,7.90
2022-09-21T18:43:57.946Z,7.80
2022-09-21T18:46:41.599Z,7.80
2022-09-21T18:49:11.203Z,7.80
2022-09-21T18:51:44.040Z,7.80
2022-09-21T18:54:17.253Z,7.70
2022-09-21T18:56:44.317Z,7.70
2022-09-21T18:59:11.714Z,7.60
2022-09-21T19:01:38.856Z,7.60
2022-09-21T19:04:05.800Z,7.50
2022-09-21T19:06:42.593Z,7.50
2022-09-21T19:09:16.619Z,7.40
2022-09-21T19:11:55.011Z,7.40
2022-09-21T19:14:37.118Z,7.40
2022-09-21T19:17:22.889Z,7.30
2022-09-21T19:19:49.623Z,7.30
2022-09-21T19:22:16.613Z,7.20
2022-09-21T19:24:44.095Z,7.20
2022-09-21T19:27:10.765Z,7.10
2022-09-21T19:30:04.452Z,7.00
2022-09-21T19:32:34.426Z,7.00
2022-09-21T19:35:12.137Z,7.00
2022-09-21T19:37:39.450Z,6.90
2022-09-21T19:40:06.872Z,6.90
2022-09-21T19:42:41.558Z,6.90
2022-09-21T19:45:14.578Z,6.80
2022-09-21T19:47:49.884Z,6.70
2022-09-21T19:50:18.485Z,6.70
2022-09-21T19:52:45.690Z,6.70
2022-09-21T19:55:32.003Z,6.60
2022-09-21T19:58:17.227Z,6.60
2022-09-21T20:00:44.995Z,6.60
2022-09-21T20:03:19.224Z,6.50
2022-09-21T20:05:45.959Z,6.50
2022-09-21T20:08:18.987Z,6.50
2022-09-21T20:10:54.503Z,6.50
2022-09-21T20:13:31.353Z,6.40
2022-09-21T20:16:00.759Z,6.40
2022-09-21T20:18:39.759Z,6.30
2022-09-21T20:21:13.830Z,6.30
2022-09-21T20:23:40.850Z,6.30
2022-09-21T20:26:18.804Z,6.30
2022-09-21T20:28:46.547Z,6.20
2022-09-21T20:31:13.292Z,6.20
2022-09-21T20:33:40.058Z,6.20
2022-09-21T20:36:06.894Z,6.10
2022-09-21T20:38:34.436Z,6.10
2022-09-21T20:41:02.321Z,6.10
2022-09-21T20:43:32.426Z,6.00
2022-09-21T20:46:00.163Z,5.90
2022-09-21T20:48:26.994Z,5.90
2022-09-21T20:50:54.134Z,5.80
2022-09-21T20:53:21.113Z,5.80
2022-09-21T20:55:55.186Z,5.80
2022-09-21T20:58:22.133Z,5.70
2022-09-21T21:00:49.870Z,5.70
2022-09-21T21:03:17.259Z,5.60
2022-09-21T21:05:44.089Z,5.60
2022-09-21T21:08:10.859Z,5.60
2022-09-21T21:10:37.647Z,5.60
2022-09-21T21:13:04.629Z,5.50
2022-09-21T21:15:32.030Z,5.40
2022-09-21T21:17:58.759Z,5.40
2022-09-21T21:20:25.726Z,5.30
2022-09-21T21:22:53.716Z,5.30
2022-09-21T21:25:20.650Z,5.30
2022-09-21T21:27:47.440Z,5.20
2022-09-21T21:30:15.151Z,5.20
2022-09-21T21:32:42.857Z,5.20
2022-09-21T21:35:09.896Z,5.20
2022-09-21T21:37:37.174Z,5.10
2022-09-21T21:40:04.119Z,5.10
2022-09-21T21:42:31.159Z,5.10
2022-09-21T21:44:57.861Z,5.10
2022-09-21T21:47:41.046Z,5.00
2022-09-21T21:50:09.288Z,5.00
2022-09-21T21:52:36.164Z,5.00
2022-09-21T21:55:03.536Z,5.00
2022-09-21T21:57:30.283Z,4.90
2022-09-21T21:59:57.002Z,4.90
2022-09-21T22:02:24.286Z,4.90
2022-09-21T22:04:51.076Z,4.90
2022-09-21T22:07:17.935Z,4.80
2022-09-21T22:09:44.687Z,4.80
2022-09-21T22:12:12.001Z,4.80
2022-09-21T22:14:38.811Z,4.80
2022-09-21T22:17:05.636Z,4.70
2022-09-21T22:19:33.019Z,4.70
2022-09-21T22:21:59.779Z,4.60
2022-09-21T22:24:26.801Z,4.60
2022-09-21T22:26:53.513Z,4.50
2022-09-21T22:29:20.273Z,4.50
2022-09-21T22:31:48.338Z,4.50
2022-09-21T22:34:15.925Z,4.50
2022-09-21T22:36:45.643Z,4.50
2022-09-21T22:39:12.885Z,4.50
2022-09-21T22:41:40.699Z,4.40
2022-09-21T22:44:08.055Z,4.40
2022-09-21T22:46:35.276Z,4.40
2022-09-21T22:49:02.163Z,4.30
2022-09-21T22:51:29.479Z,4.30
2022-09-21T22:53:56.922Z,4.30
2022-09-21T22:56:27.401Z,4.30
2022-09-21T22:58:55.373Z,4.30
2022-09-21T23:01:26.389Z,4.30
2022-09-21T23:03:55.309Z,4.30
2022-09-21T23:06:23.234Z,4.20
2022-09-21T23:08:50.771Z,4.20
2022-09-21T23:11:19.595Z,4.20
2022-09-21T23:13:46.695Z,4.10
2022-09-21T23:16:14.211Z,4.10
2022-09-21T23:18:41.508Z,4.10
2022-09-21T23:21:10.848Z,4.10
2022-09-21T23:23:37.669Z,4.10
2022-09-21T23:26:04.435Z,4.00
2022-09-21T23:28:31.375Z,4.00
2022-09-21T23:30:59.533Z,4.00
2022-09-21T23:33:42.681Z,4.00
2022-09-21T23:36:10.736Z,4.00
2022-09-21T23:38:37.766Z,4.00
2022-09-21T23:41:06.281Z,4.00
2022-09-21T23:43:33.692Z,4.00
2022-09-21T23:46:00.459Z,3.90
2022-09-21T23:48:27.345Z,3.90
2022-09-21T23:50:54.621Z,3.90
2022-09-21T23:53:21.821Z,3.90
2022-09-21T23:55:48.710Z,3.90
2022-09-21T23:58:15.853Z,3.90
